»·PEaware :: N3021C KEMT-KSBD

N3021C :: KEMT-KSBD

FLIGHT INFORMATION

Flight Status: Arrived
Operator: Privately registered:
United States
More flights under this callsign
Pilot: Mark B. (9455)
Aircraft: CESSNA 172 SKYHAWK
(C172)
More flights by this aircraft type
Origin: KEMT El Monte
United States
Destination: KSBD San Bernardino Intl
United States
More flights between these airports :: More routes between these airports
Route: +PDZ
File this flight plan on PilotEdge
Remarks:
Altitude:
(Current/Filed)
5,000ft
Speed:
(Current/Filed)
115kts
Departed: 06-Jan-18 09:06 PM
Arrived: 06-Jan-18 09:33 PM
Distance/Time
Traveled:
39nm/0:27
Distance/Time
To Go:
Arrived

Flight Plot

Page will automatically refresh every two minutes.


Map Options




Map Legend


Flown Route
Filed Route
Departure Airport
Arrival Airport
Navaid (VOR, NDB)
Fix

Horizontal Profiles

Position Reports

Time Latitude Longitude Heading Altitude Ground
Speed
06-Jan-18 20:50 34.088647 -118.032276 295 299ft 0kts
06-Jan-18 20:51 34.088647 -118.032276 295 299ft 0kts
06-Jan-18 20:52 34.088647 -118.032276 295 299ft 0kts
06-Jan-18 20:53 34.088647 -118.032276 295 299ft 0kts
06-Jan-18 20:54 34.088647 -118.032276 295 299ft 0kts
06-Jan-18 20:55 34.088647 -118.032276 295 299ft 0kts
06-Jan-18 20:56 34.088647 -118.032276 295 299ft 0kts
06-Jan-18 20:57 34.088647 -118.032276 295 299ft 0kts
06-Jan-18 20:58 34.088647 -118.032276 295 299ft 0kts
06-Jan-18 20:59 34.088647 -118.032276 295 299ft 0kts
06-Jan-18 21:00 34.088647 -118.032276 295 299ft 0kts
06-Jan-18 21:01 34.088647 -118.032276 295 299ft 0kts
06-Jan-18 21:02 34.088647 -118.032276 295 299ft 0kts
06-Jan-18 21:03 34.088647 -118.032276 295 299ft 0kts
06-Jan-18 21:04 34.088647 -118.032276 295 299ft 0kts
06-Jan-18 21:05 34.088647 -118.032276 295 299ft 0kts
06-Jan-18 21:06 34.088647 -118.032276 295 299ft 0kts
06-Jan-18 21:07 34.088647 -118.032276 295 299ft 0kts
06-Jan-18 21:08 34.088647 -118.032276 295 299ft 0kts
06-Jan-18 21:09 34.090664 -118.031606 342 299ft 0kts
06-Jan-18 21:10 34.090664 -118.031606 342 299ft 0kts
06-Jan-18 21:11 34.090664 -118.031606 342 299ft 0kts
06-Jan-18 21:12 34.088462 -118.033414 203 299ft 66kts
06-Jan-18 21:13 34.067707 -118.043740 203 1328ft 83kts
06-Jan-18 21:14 34.057429 -118.028041 78 2392ft 84kts
06-Jan-18 21:15 34.061453 -118.000104 79 3400ft 86kts
06-Jan-18 21:16 34.064023 -117.971520 96 4351ft 87kts
06-Jan-18 21:17 34.055561 -117.941954 113 4948ft 107kts
06-Jan-18 21:18 34.043095 -117.906843 111 4839ft 115kts
06-Jan-18 21:19 34.031749 -117.872409 113 4905ft 115kts
06-Jan-18 21:20 34.018915 -117.836876 107 4921ft 116kts
06-Jan-18 21:21 34.007075 -117.800754 125 4885ft 118kts
06-Jan-18 21:22 33.996448 -117.764378 104 4883ft 119kts
06-Jan-18 21:23 33.988044 -117.726586 107 4849ft 120kts
06-Jan-18 21:24 33.976702 -117.691178 111 4947ft 118kts
06-Jan-18 21:25 33.963212 -117.655330 114 4938ft 116kts
06-Jan-18 21:26 33.950501 -117.619496 112 4934ft 115kts
06-Jan-18 21:27 33.939304 -117.582893 109 4869ft 118kts
06-Jan-18 21:28 33.924783 -117.548129 117 4882ft 117kts
06-Jan-18 21:29 33.939228 -117.519364 22 4466ft 128kts
06-Jan-18 21:30 33.972377 -117.504085 19 3852ft 131kts
06-Jan-18 21:31 34.003339 -117.490816 21 3913ft 119kts
06-Jan-18 21:32 34.027025 -117.465118 69 3802ft 121kts
06-Jan-18 21:33 34.039160 -117.424535 67 3219ft 134kts
06-Jan-18 21:34 34.050566 -117.385864 70 3217ft 122kts
06-Jan-18 21:35 34.061985 -117.347014 74 2896ft 127kts
06-Jan-18 21:36 34.073930 -117.308125 65 2140ft 114kts
06-Jan-18 21:37 34.083887 -117.272336 73 1555ft 109kts
06-Jan-18 21:38 34.091073 -117.249353 72 1172ft 50kts
06-Jan-18 21:39 34.093755 -117.242148 357 1161ft 6kts
06-Jan-18 21:40 34.094622 -117.242152 356 1161ft 0kts

Navigation Log

Ident Type
Flight plan parsing failed, navigation log unavailable